createdAt,value
2022-08-09T00:00:11.402Z,100.00
2022-08-09T00:02:49.112Z,100.00
2022-08-09T00:06:16.231Z,100.00
2022-08-09T00:08:10.179Z,100.00
2022-08-09T00:10:39.289Z,100.00
2022-08-09T00:13:16.821Z,100.00
2022-08-09T00:15:59.065Z,100.00
2022-08-09T00:18:28.968Z,100.00
2022-08-09T00:20:55.566Z,100.00
2022-08-09T00:23:55.684Z,100.00
2022-08-09T00:26:10.890Z,100.00
2022-08-09T00:28:39.534Z,100.00
2022-08-09T00:31:09.210Z,100.00
2022-08-09T00:33:54.947Z,100.00
2022-08-09T00:36:29.561Z,100.00
2022-08-09T00:38:57.772Z,100.00
2022-08-09T00:44:10.467Z,100.00
2022-08-09T00:44:26.029Z,100.00
2022-08-09T00:46:56.854Z,100.00
2022-08-09T00:49:28.543Z,100.00
2022-08-09T00:51:57.971Z,100.00
2022-08-09T00:54:31.278Z,100.00
2022-08-09T00:57:01.826Z,100.00
2022-08-09T00:59:40.650Z,100.00
2022-08-09T01:02:09.403Z,100.00
2022-08-09T01:04:52.498Z,100.00
2022-08-09T01:07:38.030Z,100.00
2022-08-09T01:10:29.652Z,100.00
2022-08-09T01:13:16.897Z,100.00
2022-08-09T01:15:52.126Z,100.00
2022-08-09T01:18:30.339Z,100.00
2022-08-09T01:21:09.886Z,100.00
2022-08-09T01:24:00.712Z,100.00
2022-08-09T01:26:54.943Z,100.00
2022-08-09T01:29:29.479Z,100.00
2022-08-09T01:32:37.731Z,100.00
2022-08-09T01:35:29.007Z,100.00
2022-08-09T01:38:10.614Z,100.00
2022-08-09T01:40:52.868Z,100.00
2022-08-09T01:43:50.453Z,100.00
2022-08-09T01:46:37.672Z,100.00
2022-08-09T01:49:14.779Z,100.00
2022-08-09T01:51:53.709Z,100.00
2022-08-09T01:54:23.042Z,100.00
2022-08-09T01:56:52.704Z,100.00
2022-08-09T01:59:22.990Z,100.00
2022-08-09T02:01:59.719Z,100.00
2022-08-09T02:04:30.027Z,100.00
2022-08-09T02:07:18.557Z,100.00
2022-08-09T02:10:10.623Z,100.00
2022-08-09T02:12:39.315Z,100.00
2022-08-09T02:15:08.227Z,100.00
2022-08-09T02:18:01.653Z,100.00
2022-08-09T02:20:33.928Z,100.00
2022-08-09T02:23:17.069Z,100.00
2022-08-09T02:25:52.583Z,100.00
2022-08-09T02:28:28.365Z,100.00
2022-08-09T02:31:01.511Z,100.00
2022-08-09T02:33:58.117Z,100.00
2022-08-09T02:36:31.994Z,100.00
2022-08-09T02:39:02.721Z,100.00
2022-08-09T02:41:43.550Z,100.00
2022-08-09T02:44:29.266Z,100.00
2022-08-09T02:46:58.782Z,100.00
2022-08-09T02:49:40.990Z,100.00
2022-08-09T02:52:16.199Z,100.00
2022-08-09T02:54:54.052Z,100.00
2022-08-09T02:57:23.525Z,100.00
2022-08-09T03:00:21.441Z,100.00
2022-08-09T03:02:58.533Z,100.00
2022-08-09T03:05:28.378Z,100.00
2022-08-09T03:07:56.652Z,100.00
2022-08-09T03:10:26.470Z,100.00
2022-08-09T03:12:54.527Z,100.00
2022-08-09T03:15:23.202Z,100.00
2022-08-09T03:17:58.030Z,100.00
2022-08-09T03:20:29.646Z,100.00
2022-08-09T03:23:14.522Z,100.00
2022-08-09T03:25:58.062Z,100.00
2022-08-09T03:28:27.088Z,100.00
2022-08-09T03:30:55.621Z,100.00
2022-08-09T03:33:24.371Z,100.00
2022-08-09T03:36:13.034Z,100.00
2022-08-09T03:38:42.737Z,100.00
2022-08-09T03:41:15.130Z,100.00
2022-08-09T03:43:42.632Z,100.00
2022-08-09T03:46:27.220Z,100.00
2022-08-09T03:49:04.169Z,100.00
2022-08-09T03:51:54.082Z,100.00
2022-08-09T03:54:29.456Z,100.00
2022-08-09T03:57:00.843Z,100.00
2022-08-09T03:59:53.476Z,100.00
2022-08-09T04:02:14.444Z,100.00
2022-08-09T04:04:46.345Z,100.00
2022-08-09T04:07:14.562Z,100.00
2022-08-09T04:09:50.012Z,100.00
2022-08-09T04:12:41.380Z,100.00
2022-08-09T04:15:29.507Z,100.00
2022-08-09T04:17:59.091Z,100.00
2022-08-09T04:20:34.536Z,100.00
2022-08-09T04:23:02.037Z,100.00
2022-08-09T04:25:29.507Z,100.00
2022-08-09T04:28:02.450Z,100.00
2022-08-09T04:30:31.656Z,100.00
2022-08-09T04:33:01.158Z,100.00
2022-08-09T04:35:29.281Z,100.00
2022-08-09T04:37:59.593Z,100.00
2022-08-09T04:40:48.362Z,100.00
2022-08-09T04:43:22.649Z,100.00
2022-08-09T04:45:54.454Z,100.00
2022-08-09T04:48:23.703Z,100.00
2022-08-09T04:50:51.939Z,100.00
2022-08-09T04:53:18.420Z,100.00
2022-08-09T04:55:58.467Z,100.00
2022-08-09T04:58:31.817Z,100.00
2022-08-09T05:01:01.453Z,100.00
2022-08-09T05:03:40.277Z,100.00
2022-08-09T05:06:11.875Z,100.00
2022-08-09T05:08:52.226Z,100.00
2022-08-09T05:11:32.446Z,100.00
2022-08-09T05:14:05.911Z,100.00
2022-08-09T05:16:58.224Z,100.00
2022-08-09T05:19:26.012Z,100.00
2022-08-09T05:21:55.505Z,100.00
2022-08-09T05:24:24.170Z,100.00
2022-08-09T05:26:55.960Z,100.00
2022-08-09T05:29:31.395Z,100.00
2022-08-09T05:32:02.015Z,100.00
2022-08-09T05:34:31.627Z,100.00
2022-08-09T05:37:06.154Z,100.00
2022-08-09T05:39:43.188Z,100.00
2022-08-09T05:42:17.840Z,100.00
2022-08-09T05:44:58.468Z,100.00
2022-08-09T05:47:30.311Z,100.00
2022-08-09T05:50:30.150Z,100.00
2022-08-09T05:52:53.628Z,100.00
2022-08-09T05:55:21.689Z,100.00
2022-08-09T05:57:56.775Z,100.00
2022-08-09T06:00:32.875Z,100.00
2022-08-09T06:03:02.294Z,100.00
2022-08-09T06:05:54.814Z,100.00
2022-08-09T06:08:19.459Z,100.00
2022-08-09T06:10:51.569Z,100.00
2022-08-09T06:13:20.333Z,100.00
2022-08-09T06:15:52.187Z,100.00
2022-08-09T06:18:24.065Z,100.00
2022-08-09T06:20:54.831Z,100.00
2022-08-09T06:23:58.267Z,100.00
2022-08-09T06:26:21.340Z,100.00
2022-08-09T06:28:59.394Z,100.00
2022-08-09T06:31:31.501Z,100.00
2022-08-09T06:34:07.424Z,100.00
2022-08-09T06:36:33.974Z,100.00
2022-08-09T06:39:02.659Z,100.00
2022-08-09T06:42:07.884Z,100.00
2022-08-09T06:44:23.744Z,100.00
2022-08-09T06:46:55.282Z,100.00
2022-08-09T06:49:44.953Z,100.00
2022-08-09T06:52:09.769Z,100.00
2022-08-09T06:54:39.251Z,100.00
2022-08-09T06:57:08.432Z,100.00
2022-08-09T07:00:51.343Z,100.00
2022-08-09T07:02:22.330Z,100.00
2022-08-09T07:04:57.501Z,100.00
2022-08-09T07:07:58.435Z,100.00
2022-08-09T07:10:29.656Z,100.00
2022-08-09T07:13:00.092Z,100.00
2022-08-09T07:16:34.792Z,100.00
2022-08-09T07:18:31.436Z,100.00
2022-08-09T07:20:58.439Z,100.00
2022-08-09T07:23:24.884Z,100.00
2022-08-09T07:26:02.601Z,98.37
2022-08-09T07:28:30.821Z,98.82
2022-08-09T07:31:02.260Z,96.56
2022-08-09T07:33:52.683Z,96.86
2022-08-09T07:36:17.818Z,100.00
2022-08-09T07:38:56.810Z,93.75
2022-08-09T07:41:27.240Z,95.09
2022-08-09T07:43:59.873Z,88.16
2022-08-09T07:46:28.088Z,91.54
2022-08-09T07:48:59.361Z,87.60
2022-08-09T07:52:05.120Z,85.02
2022-08-09T07:54:14.602Z,84.12
2022-08-09T07:56:45.193Z,84.69
2022-08-09T07:59:34.772Z,85.02
2022-08-09T08:02:08.912Z,78.95
2022-08-09T08:04:36.512Z,82.53
2022-08-09T08:07:15.172Z,82.81
2022-08-09T08:10:07.502Z,77.05
2022-08-09T08:12:35.380Z,74.08
2022-08-09T08:15:05.017Z,79.60
2022-08-09T08:17:52.590Z,73.73
2022-08-09T08:20:19.620Z,78.05
2022-08-09T08:23:01.279Z,77.20
2022-08-09T08:25:44.668Z,77.68
2022-08-09T08:28:14.967Z,73.56
2022-08-09T08:30:45.661Z,74.34
2022-08-09T08:33:23.852Z,75.50
2022-08-09T08:35:58.526Z,76.70
2022-08-09T08:38:28.508Z,77.31
2022-08-09T08:40:56.688Z,76.04
2022-08-09T08:43:24.359Z,69.77
2022-08-09T08:46:09.934Z,65.23
2022-08-09T08:48:52.054Z,71.29
2022-08-09T08:51:22.579Z,66.17
2022-08-09T08:54:03.926Z,59.54
2022-08-09T08:56:37.588Z,67.80
2022-08-09T08:59:20.036Z,63.60
2022-08-09T09:01:52.942Z,58.48
2022-08-09T09:04:41.327Z,57.94
2022-08-09T09:07:15.825Z,54.71
2022-08-09T09:10:02.302Z,56.27
2022-08-09T09:12:34.222Z,55.34
2022-08-09T09:15:05.773Z,51.43
2022-08-09T09:17:48.532Z,49.56
2022-08-09T09:20:18.997Z,49.02
2022-08-09T09:22:56.658Z,52.45
2022-08-09T09:26:04.849Z,51.54
2022-08-09T09:28:39.092Z,48.13
2022-08-09T09:32:06.615Z,44.96
2022-08-09T09:34:14.447Z,50.42
2022-08-09T09:36:50.977Z,46.38
2022-08-09T09:39:54.851Z,46.93
2022-08-09T09:42:26.649Z,43.93
2022-08-09T09:44:59.026Z,45.87
2022-08-09T09:47:26.468Z,46.17
2022-08-09T09:50:14.458Z,44.80
2022-08-09T09:52:56.885Z,46.39
2022-08-09T09:55:32.083Z,44.41
2022-08-09T09:58:19.296Z,44.78
2022-08-09T10:00:54.059Z,42.28
2022-08-09T10:03:40.043Z,39.27
2022-08-09T10:06:07.071Z,38.23
2022-08-09T10:08:42.682Z,37.83
2022-08-09T10:11:59.892Z,39.88
2022-08-09T10:14:32.992Z,37.94
2022-08-09T10:17:40.683Z,37.73
2022-08-09T10:19:57.205Z,39.66
2022-08-09T10:22:35.356Z,37.75
2022-08-09T10:25:11.275Z,36.70
2022-08-09T10:27:45.344Z,34.43
2022-08-09T10:34:04.618Z,38.47
2022-08-09T10:36:11.698Z,35.35
2022-08-09T10:38:56.605Z,35.51
2022-08-09T10:41:26.209Z,37.14
2022-08-09T10:44:01.565Z,36.24
2022-08-09T10:46:57.313Z,36.03
2022-08-09T10:49:50.150Z,36.74
2022-08-09T10:52:42.901Z,34.16
2022-08-09T10:55:21.314Z,33.27
2022-08-09T10:57:51.872Z,30.94
2022-08-09T11:00:50.892Z,32.89
2022-08-09T11:03:47.137Z,34.83
2022-08-09T11:06:16.862Z,34.42
2022-08-09T11:08:47.347Z,33.39
2022-08-09T11:11:16.158Z,31.70
2022-08-09T11:13:54.250Z,31.98
2022-08-09T11:16:35.518Z,30.82
2022-08-09T11:19:07.895Z,33.12
2022-08-09T11:21:56.962Z,32.53
2022-08-09T11:24:57.071Z,31.41
2022-08-09T11:28:04.835Z,32.77
2022-08-09T11:30:37.622Z,31.84
2022-08-09T11:33:13.847Z,30.61
2022-08-09T11:35:49.159Z,31.33
2022-08-09T11:38:19.815Z,29.78
2022-08-09T11:40:54.689Z,30.16
2022-08-09T11:43:32.404Z,32.76
2022-08-09T11:46:01.471Z,32.54
2022-08-09T11:48:33.557Z,30.35
2022-08-09T11:52:49.440Z,30.41
2022-08-09T11:54:13.438Z,29.25
2022-08-09T11:56:42.619Z,29.27
2022-08-09T11:59:33.013Z,29.33
2022-08-09T12:02:34.335Z,31.18
2022-08-09T12:04:47.193Z,32.44
2022-08-09T12:07:14.851Z,31.80
2022-08-09T12:09:50.502Z,28.28
2022-08-09T12:12:20.412Z,29.91
2022-08-09T12:15:07.622Z,30.47
2022-08-09T12:17:42.110Z,31.41
2022-08-09T12:20:21.387Z,30.15
2022-08-09T12:23:00.470Z,31.44
2022-08-09T12:25:31.896Z,27.48
2022-08-09T12:29:13.892Z,26.48
2022-08-09T12:31:58.070Z,27.62
2022-08-09T12:34:11.108Z,29.06
2022-08-09T12:36:58.830Z,27.20
2022-08-09T12:39:37.749Z,27.82
2022-08-09T12:42:10.313Z,28.71
2022-08-09T12:44:52.065Z,29.14
2022-08-09T12:47:23.027Z,31.09
2022-08-09T12:50:08.908Z,30.73
2022-08-09T12:52:52.561Z,32.55
2022-08-09T12:56:15.617Z,29.50
2022-08-09T12:58:27.463Z,29.53
2022-08-09T13:00:55.404Z,32.52
2022-08-09T13:03:56.743Z,33.05
2022-08-09T13:06:38.891Z,29.89
2022-08-09T13:09:07.644Z,28.54
2022-08-09T13:11:39.646Z,29.20
2022-08-09T13:14:42.916Z,30.71
2022-08-09T13:17:08.527Z,31.64
2022-08-09T13:20:09.305Z,31.13
2022-08-09T13:22:36.525Z,31.80
2022-08-09T13:25:07.455Z,31.22
2022-08-09T13:27:48.415Z,32.42
2022-08-09T13:30:51.016Z,31.72
2022-08-09T13:33:17.125Z,32.57
2022-08-09T13:36:37.954Z,32.67
2022-08-09T13:38:57.869Z,33.45
2022-08-09T13:41:55.624Z,34.10
2022-08-09T13:44:13.675Z,36.48
2022-08-09T13:47:30.807Z,35.80
2022-08-09T13:49:37.618Z,35.55
2022-08-09T13:52:09.219Z,36.27
2022-08-09T13:54:41.789Z,35.98
2022-08-09T13:57:36.353Z,36.21
2022-08-09T14:00:04.843Z,38.60
2022-08-09T14:02:32.622Z,37.96
2022-08-09T14:05:03.107Z,37.24
2022-08-09T14:07:40.981Z,37.87
2022-08-09T14:10:17.513Z,37.73
2022-08-09T14:12:56.847Z,37.99
2022-08-09T14:16:10.466Z,38.23
2022-08-09T14:18:18.779Z,38.82
2022-08-09T14:20:45.907Z,38.65
2022-08-09T14:23:20.310Z,38.13
2022-08-09T14:26:02.372Z,38.00
2022-08-09T14:28:33.216Z,38.73
2022-08-09T14:30:59.672Z,37.92
2022-08-09T14:33:26.120Z,38.60
2022-08-09T14:35:53.483Z,38.65
2022-08-09T14:38:20.115Z,38.53
2022-08-09T14:41:04.304Z,38.84
2022-08-09T14:43:47.735Z,38.04
2022-08-09T14:46:54.753Z,38.56
2022-08-09T14:49:10.471Z,39.45
2022-08-09T14:51:42.428Z,40.83
2022-08-09T14:54:09.541Z,40.36
2022-08-09T14:56:36.449Z,39.98
2022-08-09T14:59:23.900Z,40.66
2022-08-09T15:01:50.524Z,40.71
2022-08-09T15:04:17.803Z,40.53
2022-08-09T15:06:49.706Z,41.13
2022-08-09T15:09:16.807Z,40.94
2022-08-09T15:12:04.469Z,40.97
2022-08-09T15:14:33.691Z,40.78
2022-08-09T15:17:04.990Z,41.22
2022-08-09T15:19:36.032Z,40.99
2022-08-09T15:22:03.857Z,42.44
2022-08-09T15:24:32.550Z,42.40
2022-08-09T15:26:59.788Z,42.89
2022-08-09T15:30:48.860Z,42.94
2022-08-09T15:32:29.134Z,43.21
2022-08-09T15:34:59.926Z,42.73
2022-08-09T15:37:57.134Z,42.81
2022-08-09T15:40:25.334Z,42.88
2022-08-09T15:42:59.196Z,43.25
2022-08-09T15:45:29.372Z,42.62
2022-08-09T15:48:05.348Z,42.98
2022-08-09T15:50:39.289Z,42.56
2022-08-09T15:54:02.159Z,43.50
2022-08-09T15:56:24.069Z,43.65
2022-08-09T15:58:44.817Z,44.14
2022-08-09T16:01:13.582Z,44.22
2022-08-09T16:03:41.630Z,45.44
2022-08-09T16:06:27.289Z,45.98
2022-08-09T16:08:56.135Z,46.33
2022-08-09T16:11:23.422Z,45.03
2022-08-09T16:14:04.708Z,45.34
2022-08-09T16:16:37.147Z,46.26
2022-08-09T16:19:06.132Z,46.28
2022-08-09T16:21:35.183Z,47.13
2022-08-09T16:24:03.051Z,47.44
2022-08-09T16:26:33.601Z,47.54
2022-08-09T16:29:01.250Z,47.66
2022-08-09T16:32:10.634Z,47.87
2022-08-09T16:34:24.703Z,48.22
2022-08-09T16:36:51.262Z,48.55
2022-08-09T16:39:17.907Z,48.95
2022-08-09T16:42:03.966Z,49.71
2022-08-09T16:44:31.835Z,49.81
2022-08-09T16:47:03.976Z,50.69
2022-08-09T16:50:29.716Z,50.92
2022-08-09T16:52:32.159Z,51.05
2022-08-09T16:54:58.809Z,51.44
2022-08-09T16:57:25.251Z,51.00
2022-08-09T16:59:57.854Z,51.37
2022-08-09T17:02:33.865Z,51.44
2022-08-09T17:05:00.673Z,51.36
2022-08-09T17:08:42.704Z,52.29
2022-08-09T17:10:15.673Z,52.88
2022-08-09T17:12:45.568Z,52.88
2022-08-09T17:15:18.228Z,53.32
2022-08-09T17:18:01.150Z,53.50
2022-08-09T17:20:35.177Z,53.94
2022-08-09T17:23:04.816Z,53.75
2022-08-09T17:25:32.245Z,54.67
2022-08-09T17:28:05.995Z,54.43
2022-08-09T17:30:33.910Z,55.70
2022-08-09T17:33:22.405Z,56.28
2022-08-09T17:35:50.272Z,56.82
2022-08-09T17:38:32.612Z,57.20
2022-08-09T17:41:02.970Z,58.68
2022-08-09T17:43:35.735Z,59.46
2022-08-09T17:46:09.161Z,60.64
2022-08-09T17:48:40.249Z,61.79
2022-08-09T17:51:18.603Z,63.07
2022-08-09T17:53:51.982Z,63.92
2022-08-09T17:56:35.400Z,65.01
2022-08-09T17:59:09.177Z,66.32
2022-08-09T18:01:40.783Z,66.28
2022-08-09T18:04:25.514Z,67.38
2022-08-09T18:06:54.776Z,67.66
2022-08-09T18:09:40.957Z,68.14
2022-08-09T18:12:19.407Z,70.12
2022-08-09T18:14:53.565Z,69.83
2022-08-09T18:17:27.046Z,72.38
2022-08-09T18:21:00.195Z,73.61
2022-08-09T18:22:56.622Z,74.76
2022-08-09T18:25:51.093Z,75.76
2022-08-09T18:28:21.698Z,77.23
2022-08-09T18:30:57.975Z,76.82
2022-08-09T18:33:25.723Z,77.75
2022-08-09T18:35:59.333Z,79.54
2022-08-09T18:38:27.620Z,80.77
2022-08-09T18:40:55.305Z,82.57
2022-08-09T18:43:23.650Z,83.04
2022-08-09T18:46:51.019Z,82.38
2022-08-09T18:48:38.329Z,85.89
2022-08-09T18:51:08.887Z,86.64
2022-08-09T18:53:56.966Z,87.00
2022-08-09T18:56:28.066Z,88.78
2022-08-09T18:58:56.252Z,89.02
2022-08-09T19:01:23.616Z,89.62
2022-08-09T19:04:01.781Z,90.37
2022-08-09T19:06:36.336Z,91.05
2022-08-09T19:09:06.369Z,92.75
2022-08-09T19:11:38.101Z,92.45
2022-08-09T19:14:06.358Z,92.85
2022-08-09T19:16:36.291Z,93.12
2022-08-09T19:19:25.299Z,94.07
2022-08-09T19:22:06.772Z,94.07
2022-08-09T19:24:39.324Z,93.90
2022-08-09T19:27:21.600Z,94.81
2022-08-09T19:30:22.987Z,94.46
2022-08-09T19:32:35.576Z,96.51
2022-08-09T19:35:04.326Z,97.92
2022-08-09T19:37:41.180Z,99.89
2022-08-09T19:40:19.470Z,100.00
2022-08-09T19:42:47.419Z,100.00
2022-08-09T19:45:16.204Z,100.00
2022-08-09T19:47:44.354Z,100.00
2022-08-09T19:50:50.144Z,100.00
2022-08-09T19:52:59.504Z,100.00
2022-08-09T19:55:39.150Z,100.00
2022-08-09T19:58:16.041Z,100.00
2022-08-09T20:00:45.460Z,100.00
2022-08-09T20:04:09.977Z,100.00
2022-08-09T20:05:59.617Z,100.00
2022-08-09T20:08:34.929Z,100.00
2022-08-09T20:11:03.979Z,100.00
2022-08-09T20:13:32.261Z,100.00
2022-08-09T20:16:37.555Z,100.00
2022-08-09T20:19:42.420Z,100.00
2022-08-09T20:21:57.002Z,100.00
2022-08-09T20:24:31.893Z,100.00
2022-08-09T20:27:01.567Z,100.00
2022-08-09T20:29:32.691Z,100.00
2022-08-09T20:32:33.342Z,100.00
2022-08-09T20:34:51.744Z,100.00
2022-08-09T20:37:21.611Z,100.00
2022-08-09T20:40:15.812Z,100.00
2022-08-09T20:42:35.872Z,100.00
2022-08-09T20:46:00.492Z,100.00
2022-08-09T20:47:51.618Z,100.00
2022-08-09T20:50:47.602Z,100.00
2022-08-09T20:53:04.606Z,100.00
2022-08-09T20:55:47.267Z,100.00
2022-08-09T20:58:28.514Z,100.00
2022-08-09T21:01:14.271Z,100.00
2022-08-09T21:04:08.393Z,100.00
2022-08-09T21:06:33.616Z,100.00
2022-08-09T21:09:01.546Z,100.00
2022-08-09T21:14:15.416Z,100.00
2022-08-09T21:16:43.774Z,100.00
2022-08-09T21:20:18.201Z,100.00
2022-08-09T21:21:59.647Z,100.00
2022-08-09T21:24:29.000Z,100.00
2022-08-09T21:26:59.050Z,100.00
2022-08-09T21:29:25.454Z,100.00
2022-08-09T21:31:51.882Z,100.00
2022-08-09T21:34:28.834Z,100.00
2022-08-09T21:36:56.623Z,100.00
2022-08-09T21:39:41.520Z,100.00
2022-08-09T21:42:10.475Z,100.00
2022-08-09T21:44:38.010Z,100.00
2022-08-09T21:47:07.911Z,100.00
2022-08-09T21:49:39.700Z,100.00
2022-08-09T21:52:14.861Z,100.00
2022-08-09T21:54:50.898Z,100.00
2022-08-09T21:57:39.616Z,100.00
2022-08-09T22:00:25.541Z,100.00
2022-08-09T22:02:58.202Z,100.00
2022-08-09T22:05:36.074Z,100.00
2022-08-09T22:08:05.263Z,100.00
2022-08-09T22:10:31.804Z,100.00
2022-08-09T22:12:59.752Z,100.00
2022-08-09T22:15:35.308Z,100.00
2022-08-09T22:18:03.771Z,100.00
2022-08-09T22:20:31.097Z,100.00
2022-08-09T22:22:58.414Z,100.00
2022-08-09T22:26:08.371Z,100.00
2022-08-09T22:28:11.704Z,100.00
2022-08-09T22:30:39.151Z,100.00
2022-08-09T22:33:17.413Z,100.00
2022-08-09T22:36:00.996Z,100.00
2022-08-09T22:38:30.071Z,100.00
2022-08-09T22:40:58.465Z,100.00
2022-08-09T22:44:02.606Z,100.00
2022-08-09T22:48:13.479Z,100.00
2022-08-09T22:49:01.716Z,100.00
2022-08-09T22:51:28.430Z,100.00
2022-08-09T22:54:02.765Z,100.00
2022-08-09T22:56:34.075Z,100.00
2022-08-09T22:59:05.789Z,100.00
2022-08-09T23:01:51.707Z,100.00
2022-08-09T23:04:18.245Z,100.00
2022-08-09T23:07:03.712Z,100.00
2022-08-09T23:09:38.309Z,100.00
2022-08-09T23:12:04.863Z,100.00
2022-08-09T23:14:41.645Z,100.00
2022-08-09T23:17:09.191Z,100.00
2022-08-09T23:20:06.522Z,100.00
2022-08-09T23:22:22.245Z,100.00
2022-08-09T23:24:49.212Z,100.00
2022-08-09T23:27:15.856Z,100.00
2022-08-09T23:29:42.484Z,100.00
2022-08-09T23:32:09.083Z,100.00
2022-08-09T23:34:35.519Z,100.00
2022-08-09T23:37:02.376Z,100.00
2022-08-09T23:39:28.858Z,100.00
2022-08-09T23:41:55.584Z,100.00
2022-08-09T23:44:22.153Z,100.00
2022-08-09T23:46:52.862Z,100.00
2022-08-09T23:49:24.986Z,100.00
2022-08-09T23:51:52.172Z,100.00
2022-08-09T23:54:18.870Z,100.00
2022-08-09T23:56:54.336Z,100.00
2022-08-09T23:59:24.179Z,100.00
